Philadelphia International Airport
KPHL : now visible

Airfield :











YOU CAN JOIN US ON...

 
LOGIN :

Register | Disclaimer

   EN    FR    IT 

 









Legend :    VFR   Marginal VFR   IFR   Intensive IFR   Very Intensive IFR
Visi :
Ceiling :
>= 8 km
>= 3000ft
5 to 8 km
1000 to 3000 ft
1500m to 5 km
500 to 1000 ft
800 to 1500m
200 to 500 ft
< 800m
< 200 ft
Symbols :   Thunderstorms  Fog  Heavy snow  Heavy precipitations  Wind > 20 kt







- Airport Elevation : 36 ft
- IATA code : PHL


KPHL - Philadelphia International

CURRENT METAR :
  • 191954Z 17011KT 10SM FEW030 SCT050 BKN150 OVC250 24/17 A2973 RMK AO2 SLP066 T02390172

EXPIRED METARs :
  • 191854Z 18017KT 10SM SCT032 BKN050 BKN100 BKN250 24/17 A2975 RMK AO2 SLP074 T02440167
  • 191754Z 19014KT 10SM SCT028 SCT035 BKN080 BKN250 25/17 A2978 RMK AO2 SLP082 60000 T02500167 10256 20194 58009

TAF KPHL
Valid from the 19 at 18:00 until the 21 at 00:00 UTC


191728Z 1918/2024 18015G22KT P6SM BKN035
FM191900 19014G23KT 4SM SHRA BR VCTS SCT025 OVC040CB
FM192300 18014G22KT P6SM OVC015
FM200300 18012G19KT 4SM SHRA BR OVC008 WS020/18045KT
PROB30 2003/2007 2SM TSRA BR BKN008 OVC015CB
FM200700 16012KT 5SM BR OVC008 WS020/18045KT
PROB30 2007/2011 4SM -SHRA BR OVC015
FM201400 18012G18KT P6SM BKN015
FM201600 18014G23KT P6SM BKN025
FM201800 18013G25KT P6SM BKN090
KZDC FIR / North America



MET'MAP, your aeronautical weather chart ! - Copyright ORBIFLY December 2007 - Disclaimer

ORBIFLY MET'MAP TEAM :

Programming & Development : Alexandra Zaïnal
Concept & Development : Baudouin d'Aumeries
Co-Development & Prog : Marc-Olivier Méhu
Technical & hardware support : Manuel Goepfert

Contact : metmap@orbifly.com




SOURCES & CREDITS :

   NOAA       Earth
Advisory